Time;durP1;ratioP1;P1;durP2;ratioP2;P2;SDS_P1;SDS_P2;PMS_P1;PMS_P2;Temp;Humidity;BMP_temperature;BMP_pressure;BME280_temperature;BME280_humidity;BME280_pressure;Samples;Min_cycle;Max_cycle;Signal;HPM_P1;HPM_P2
2021/03/03 00:01:04;;;;;;;27.23;16.00;;;;;;;;;;6271690;22;20452;-90
2021/03/03 00:03:31;;;;;;;25.63;15.85;;;;;;;;;;6269202;22;20012;-90
2021/03/03 00:05:58;;;;;;;24.95;15.15;;;;;;;;;;6321065;22;20097;-90
2021/03/03 00:08:26;;;;;;;27.88;16.60;;;;;;;;;;6294566;22;20070;-90
2021/03/03 00:10:53;;;;;;;30.70;16.58;;;;;;;;;;6293334;22;20011;-89
2021/03/03 00:13:20;;;;;;;27.17;16.63;;;;;;;;;;6294310;22;20082;-90
2021/03/03 00:15:47;;;;;;;27.98;16.15;;;;;;;;;;6268267;22;20091;-89
2021/03/03 00:18:15;;;;;;;24.08;15.10;;;;;;;;;;6243739;22;20018;-90
2021/03/03 00:20:42;;;;;;;28.00;16.38;;;;;;;;;;6268430;22;20432;-90
2021/03/03 00:23:09;;;;;;;28.42;17.27;;;;;;;;;;6269123;22;20016;-90
2021/03/03 00:25:36;;;;;;;23.65;15.80;;;;;;;;;;6293235;22;20098;-89
2021/03/03 00:28:04;;;;;;;27.65;16.67;;;;;;;;;;6269384;22;20083;-90
2021/03/03 00:30:31;;;;;;;26.50;15.77;;;;;;;;;;6293811;22;20034;-90
2021/03/03 00:32:58;;;;;;;24.73;15.85;;;;;;;;;;6268291;22;20085;-90
2021/03/03 00:35:26;;;;;;;29.05;15.70;;;;;;;;;;6294212;22;20050;-90
2021/03/03 00:37:53;;;;;;;30.63;17.85;;;;;;;;;;6267937;22;20328;-90
2021/03/03 00:40:20;;;;;;;26.55;15.88;;;;;;;;;;6243291;22;20379;-90
2021/03/03 00:42:49;;;;;;;28.70;16.63;;;;;;;;;;6268501;22;20008;-90
2021/03/03 00:45:16;;;;;;;27.27;16.63;;;;;;;;;;6268639;22;20011;-90
2021/03/03 00:47:43;;;;;;;28.50;16.63;;;;;;;;;;6268233;22;20432;-90
2021/03/03 00:50:11;;;;;;;27.42;16.15;;;;;;;;;;6268895;22;20503;-90
2021/03/03 00:52:38;;;;;;;25.60;15.80;;;;;;;;;;6268499;22;20035;-89
2021/03/03 00:55:06;;;;;;;25.40;16.30;;;;;;;;;;6293936;22;20035;-90
2021/03/03 00:57:33;;;;;;;24.55;15.60;;;;;;;;;;6293731;22;20007;-90
2021/03/03 01:00:00;;;;;;;26.70;15.55;;;;;;;;;;6279553;22;20504;-90
2021/03/03 01:02:28;;;;;;;24.70;15.40;;;;;;;;;;6299466;22;20094;-90
2021/03/03 01:04:55;;;;;;;27.23;16.55;;;;;;;;;;6298575;22;20007;-90
2021/03/03 01:07:22;;;;;;;28.10;16.25;;;;;;;;;;6324692;22;20456;-90
2021/03/03 01:09:49;;;;;;;25.85;16.77;;;;;;;;;;6324213;22;20321;-89
2021/03/03 01:12:17;;;;;;;26.50;15.82;;;;;;;;;;6299365;22;20011;-90
2021/03/03 01:14:44;;;;;;;28.17;16.40;;;;;;;;;;6273078;22;20086;-89
2021/03/03 01:17:12;;;;;;;32.20;17.25;;;;;;;;;;6325053;22;20007;-90
2021/03/03 01:19:39;;;;;;;31.65;16.25;;;;;;;;;;6299293;22;20070;-90
2021/03/03 01:22:06;;;;;;;26.40;15.80;;;;;;;;;;6298465;22;20007;-90
2021/03/03 01:24:33;;;;;;;25.95;15.48;;;;;;;;;;6324802;22;20018;-90
2021/03/03 01:27:01;;;;;;;26.40;15.27;;;;;;;;;;6323667;22;20011;-90
2021/03/03 01:29:28;;;;;;;26.33;15.43;;;;;;;;;;6298951;22;20015;-90
2021/03/03 01:31:55;;;;;;;29.00;16.27;;;;;;;;;;6298891;22;20060;-90
2021/03/03 01:34:22;;;;;;;32.60;17.65;;;;;;;;;;6299107;22;20332;-90
2021/03/03 01:36:49;;;;;;;29.80;16.25;;;;;;;;;;6298756;22;20098;-90
2021/03/03 01:39:17;;;;;;;29.98;16.33;;;;;;;;;;6324629;22;20011;-90
2021/03/03 01:41:44;;;;;;;29.70;16.23;;;;;;;;;;6298791;22;20011;-88
2021/03/03 01:44:11;;;;;;;31.45;16.73;;;;;;;;;;6324485;22;20015;-90
2021/03/03 01:46:38;;;;;;;27.83;16.08;;;;;;;;;;6298925;22;20331;-90
2021/03/03 01:49:06;;;;;;;28.42;14.98;;;;;;;;;;6298312;22;20458;-90
2021/03/03 01:51:34;;;;;;;28.40;16.10;;;;;;;;;;6299216;22;20011;-90
2021/03/03 01:54:01;;;;;;;26.33;15.25;;;;;;;;;;6300430;22;20439;-89
2021/03/03 01:56:29;;;;;;;30.45;16.95;;;;;;;;;;6301119;22;20014;-90
2021/03/03 01:58:56;;;;;;;28.65;16.48;;;;;;;;;;6300415;22;20012;-90
2021/03/03 02:01:23;;;;;;;31.25;17.17;;;;;;;;;;6300741;22;20011;-90
2021/03/03 02:03:50;;;;;;;29.55;16.08;;;;;;;;;;6325862;22;20013;-90
2021/03/03 02:06:34;;;;;;;29.73;16.23;;;;;;;;;;6300967;22;20331;-90
2021/03/03 02:09:14;;;;;;;30.75;15.60;;;;;;;;;;6335946;22;20432;-90
2021/03/03 02:11:44;;;;;;;33.97;16.88;;;;;;;;;;6326117;22;20011;-90
2021/03/03 02:14:14;;;;;;;29.77;15.82;;;;;;;;;;6325502;22;20011;-90
2021/03/03 02:16:41;;;;;;;30.70;16.17;;;;;;;;;;6325972;22;20108;-90
2021/03/03 02:19:11;;;;;;;29.40;15.82;;;;;;;;;;6300209;22;20019;-90
2021/03/03 02:21:43;;;;;;;28.55;16.42;;;;;;;;;;6326026;22;20069;-90
2021/03/03 02:24:12;;;;;;;28.17;15.63;;;;;;;;;;6335905;22;20014;-90
2021/03/03 02:26:40;;;;;;;32.03;16.20;;;;;;;;;;6326031;22;20069;-90
2021/03/03 02:29:09;;;;;;;27.77;15.55;;;;;;;;;;6325416;22;20026;-90
2021/03/03 02:31:38;;;;;;;32.42;16.17;;;;;;;;;;6325929;22;20011;-90
2021/03/03 02:34:06;;;;;;;30.90;15.65;;;;;;;;;;6325461;22;20503;-90
2021/03/03 02:36:34;;;;;;;28.77;15.95;;;;;;;;;;6326200;22;20011;-90
2021/03/03 02:39:01;;;;;;;35.83;17.25;;;;;;;;;;6325115;22;20031;-90
2021/03/03 02:41:30;;;;;;;25.25;14.90;;;;;;;;;;6300321;22;20379;-90
2021/03/03 02:43:59;;;;;;;27.52;14.60;;;;;;;;;;6325345;22;20378;-90
2021/03/03 02:46:27;;;;;;;28.38;15.23;;;;;;;;;;6325716;22;20011;-90
2021/03/03 02:48:54;;;;;;;28.13;15.15;;;;;;;;;;6325333;22;20090;-90
2021/03/03 02:51:21;;;;;;;27.30;14.52;;;;;;;;;;6325953;22;20011;-90
2021/03/03 02:53:49;;;;;;;27.85;14.60;;;;;;;;;;6300661;22;20424;-90
2021/03/03 02:56:16;;;;;;;28.73;15.45;;;;;;;;;;6299869;22;20009;-90
2021/03/03 02:58:44;;;;;;;31.05;15.75;;;;;;;;;;6325950;22;20090;-90
2021/03/03 03:01:13;;;;;;;31.50;16.00;;;;;;;;;;6351760;22;20022;-90
2021/03/03 03:03:40;;;;;;;35.17;16.10;;;;;;;;;;6325432;22;20003;-90
2021/03/03 03:06:19;;;;;;;32.33;15.60;;;;;;;;;;6324984;22;20019;-89
2021/03/03 03:08:48;;;;;;;31.40;16.30;;;;;;;;;;6325506;22;20380;-90
2021/03/03 03:11:25;;;;;;;33.10;16.58;;;;;;;;;;6325086;22;20011;-90
2021/03/03 03:13:54;;;;;;;37.53;16.65;;;;;;;;;;6325276;22;20008;-90
2021/03/03 03:16:21;;;;;;;32.00;16.38;;;;;;;;;;6325490;22;20011;-90
2021/03/03 03:18:52;;;;;;;28.83;15.13;;;;;;;;;;6325560;22;20022;-90
2021/03/03 03:21:20;;;;;;;34.38;16.95;;;;;;;;;;6352765;22;20046;-90
2021/03/03 03:23:47;;;;;;;36.05;16.58;;;;;;;;;;6300159;22;20011;-90
2021/03/03 03:26:14;;;;;;;35.60;16.42;;;;;;;;;;6325034;22;20015;-90
2021/03/03 03:28:42;;;;;;;37.40;17.45;;;;;;;;;;6300160;22;20077;-90
2021/03/03 03:31:10;;;;;;;35.45;17.33;;;;;;;;;;6274329;22;20011;-90
2021/03/03 03:33:38;;;;;;;33.30;16.45;;;;;;;;;;6325602;22;20011;-90
2021/03/03 03:36:05;;;;;;;36.15;18.27;;;;;;;;;;6299450;22;20011;-90
2021/03/03 03:38:33;;;;;;;36.47;18.00;;;;;;;;;;6325153;22;20014;-90
2021/03/03 03:41:02;;;;;;;35.17;16.45;;;;;;;;;;6324694;22;20007;-89
2021/03/03 03:43:29;;;;;;;32.53;16.17;;;;;;;;;;6299723;22;20018;-90
2021/03/03 03:45:57;;;;;;;37.88;16.15;;;;;;;;;;6325130;22;20031;-90
2021/03/03 03:48:24;;;;;;;30.30;16.83;;;;;;;;;;6299874;22;20069;-90
2021/03/03 03:50:52;;;;;;;32.20;15.75;;;;;;;;;;6299843;22;20011;-90
2021/03/03 03:53:19;;;;;;;39.83;17.55;;;;;;;;;;6299374;22;20014;-90
2021/03/03 03:55:47;;;;;;;35.88;17.08;;;;;;;;;;6299919;22;20178;-90
2021/03/03 03:58:14;;;;;;;37.72;16.90;;;;;;;;;;6324764;22;20011;-90
2021/03/03 04:00:42;;;;;;;36.47;16.80;;;;;;;;;;6324868;22;20061;-90
2021/03/03 04:03:09;;;;;;;38.22;17.08;;;;;;;;;;6299345;22;20007;-89
2021/03/03 04:05:36;;;;;;;37.90;17.60;;;;;;;;;;6324930;22;20011;-90
2021/03/03 04:08:04;;;;;;;34.78;16.67;;;;;;;;;;6274005;22;20018;-89
2021/03/03 04:10:31;;;;;;;33.88;16.52;;;;;;;;;;6325034;22;20095;-90
2021/03/03 04:12:58;;;;;;;32.20;15.65;;;;;;;;;;6299518;22;20011;-90
2021/03/03 04:15:25;;;;;;;34.10;16.25;;;;;;;;;;6324597;22;20027;-90
2021/03/03 04:17:53;;;;;;;31.38;15.38;;;;;;;;;;6324545;22;20014;-90
2021/03/03 04:20:21;;;;;;;39.25;17.20;;;;;;;;;;6324420;22;20084;-90
2021/03/03 04:22:48;;;;;;;35.15;17.17;;;;;;;;;;6299696;22;20557;-89
2021/03/03 04:25:17;;;;;;;36.70;16.75;;;;;;;;;;6324403;22;20436;-90
2021/03/03 04:27:44;;;;;;;33.33;16.35;;;;;;;;;;6324789;22;20061;-90
2021/03/03 04:30:13;;;;;;;34.40;16.15;;;;;;;;;;6324269;22;20011;-89
2021/03/03 04:32:41;;;;;;;35.78;16.55;;;;;;;;;;6324744;22;20339;-90
2021/03/03 04:35:09;;;;;;;34.28;16.88;;;;;;;;;;6299007;22;20034;-90
2021/03/03 04:37:36;;;;;;;32.83;15.77;;;;;;;;;;6324762;22;20015;-90
2021/03/03 04:40:04;;;;;;;35.05;17.20;;;;;;;;;;6298764;22;20011;-88
2021/03/03 04:42:32;;;;;;;36.53;16.25;;;;;;;;;;6299515;22;20086;-90
2021/03/03 04:44:59;;;;;;;34.92;16.58;;;;;;;;;;6299408;22;20007;-90
2021/03/03 04:47:27;;;;;;;33.60;15.90;;;;;;;;;;6323920;22;20432;-90
2021/03/03 04:49:54;;;;;;;35.83;16.48;;;;;;;;;;6324614;22;20080;-90
2021/03/03 04:52:22;;;;;;;33.13;16.20;;;;;;;;;;6324200;22;20003;-90
2021/03/03 04:54:49;;;;;;;32.65;16.05;;;;;;;;;;6299076;22;20037;-90
2021/03/03 04:57:17;;;;;;;29.90;15.13;;;;;;;;;;6324427;22;20039;-89
2021/03/03 04:59:44;;;;;;;36.80;15.88;;;;;;;;;;6298799;22;20018;-89
2021/03/03 05:02:11;;;;;;;32.13;16.30;;;;;;;;;;6299141;22;20011;-89
2021/03/03 05:04:39;;;;;;;33.33;16.65;;;;;;;;;;6299602;22;20086;-90
2021/03/03 05:07:06;;;;;;;31.25;16.60;;;;;;;;;;6299432;22;20027;-88
2021/03/03 05:09:33;;;;;;;33.50;17.15;;;;;;;;;;6324636;22;20011;-90
2021/03/03 05:12:01;;;;;;;38.22;17.10;;;;;;;;;;6299248;22;20038;-90
2021/03/03 05:14:29;;;;;;;28.02;15.50;;;;;;;;;;6298390;22;20031;-90
2021/03/03 05:16:56;;;;;;;33.13;16.95;;;;;;;;;;6324462;22;20015;-90
2021/03/03 05:19:23;;;;;;;30.50;16.70;;;;;;;;;;6323982;22;20011;-90
2021/03/03 05:21:51;;;;;;;39.28;16.60;;;;;;;;;;6351348;22;20049;-90
2021/03/03 05:24:18;;;;;;;31.77;16.35;;;;;;;;;;6298736;22;20320;-90
2021/03/03 05:26:45;;;;;;;30.73;17.25;;;;;;;;;;6324320;22;20076;-90
2021/03/03 05:29:13;;;;;;;39.10;17.90;;;;;;;;;;6326120;22;20011;-89
2021/03/03 05:31:40;;;;;;;35.20;17.80;;;;;;;;;;6275905;22;20061;-90
2021/03/03 05:34:07;;;;;;;33.35;16.52;;;;;;;;;;6301005;22;20034;-90
2021/03/03 05:36:36;;;;;;;34.15;17.15;;;;;;;;;;6301792;22;20019;-90
2021/03/03 05:39:04;;;;;;;31.70;16.35;;;;;;;;;;6326650;22;20065;-90
2021/03/03 05:41:32;;;;;;;30.65;16.75;;;;;;;;;;6326039;22;20008;-90
2021/03/03 05:44:00;;;;;;;34.05;16.05;;;;;;;;;;6301274;22;20388;-89
2021/03/03 05:46:28;;;;;;;33.03;16.65;;;;;;;;;;6325741;22;20012;-90
2021/03/03 05:49:01;;;;;;;33.53;17.25;;;;;;;;;;6326628;22;20011;-89
2021/03/03 05:51:35;;;;;;;31.88;16.80;;;;;;;;;;6327198;22;20086;-90
2021/03/03 05:54:05;;;;;;;34.00;16.88;;;;;;;;;;6326255;22;20047;-89
2021/03/03 05:56:32;;;;;;;31.17;16.88;;;;;;;;;;6299933;22;20023;-90
2021/03/03 05:59:01;;;;;;;37.08;16.35;;;;;;;;;;6326492;22;20387;-89
2021/03/03 06:01:31;;;;;;;37.13;16.92;;;;;;;;;;6325901;22;20104;-89
2021/03/03 06:03:59;;;;;;;30.17;16.40;;;;;;;;;;6326349;22;20092;-89
2021/03/03 06:06:26;;;;;;;33.25;16.85;;;;;;;;;;6300081;22;20061;-89
2021/03/03 06:08:53;;;;;;;31.10;16.42;;;;;;;;;;6300038;22;20011;-89
2021/03/03 06:11:24;;;;;;;36.17;17.83;;;;;;;;;;6300276;22;20424;-89
2021/03/03 06:13:51;;;;;;;33.60;16.88;;;;;;;;;;6300673;22;20007;-90
2021/03/03 06:16:19;;;;;;;30.38;16.65;;;;;;;;;;6299579;22;20031;-89
2021/03/03 06:18:46;;;;;;;31.30;16.25;;;;;;;;;;6325689;22;20094;-89
2021/03/03 06:21:27;;;;;;;34.85;16.92;;;;;;;;;;6326248;22;20068;-89
2021/03/03 06:24:02;;;;;;;33.33;17.13;;;;;;;;;;6326303;22;20017;-89
2021/03/03 06:26:29;;;;;;;31.13;17.20;;;;;;;;;;6325190;22;20030;-89
2021/03/03 06:28:57;;;;;;;32.97;16.92;;;;;;;;;;6325979;22;20012;-89
2021/03/03 06:31:25;;;;;;;31.15;17.15;;;;;;;;;;6325086;22;20030;-89
2021/03/03 06:33:54;;;;;;;31.50;16.95;;;;;;;;;;6325736;22;20061;-89
2021/03/03 06:36:22;;;;;;;34.78;17.52;;;;;;;;;;6325533;22;20015;-89
2021/03/03 06:38:49;;;;;;;34.10;17.75;;;;;;;;;;6325798;22;20011;-89
2021/03/03 06:41:16;;;;;;;38.88;18.15;;;;;;;;;;6325871;22;20455;-89
2021/03/03 06:43:57;;;;;;;32.65;17.58;;;;;;;;;;6300355;22;20381;-89
2021/03/03 06:46:24;;;;;;;34.95;18.42;;;;;;;;;;6299920;22;20012;-89
2021/03/03 06:48:51;;;;;;;32.85;17.48;;;;;;;;;;6300598;22;20439;-89
2021/03/03 06:51:22;;;;;;;36.70;18.88;;;;;;;;;;6299987;22;20091;-88
2021/03/03 06:53:50;;;;;;;36.83;18.95;;;;;;;;;;6325785;22;20007;-89
2021/03/03 06:56:36;;;;;;;36.42;18.15;;;;;;;;;;6299697;22;20012;-89
2021/03/03 06:59:42;;;;;;;39.75;20.05;;;;;;;;;;6326030;22;20038;-89
2021/03/03 07:02:15;;;;;;;36.38;20.88;;;;;;;;;;6172876;23;20029;-89
2021/03/03 07:04:43;;;;;;;36.85;19.80;;;;;;;;;;6148373;23;20093;-89
2021/03/03 07:07:16;;;;;;;34.53;18.73;;;;;;;;;;6208410;22;20076;-89
2021/03/03 07:09:45;;;;;;;32.95;17.50;;;;;;;;;;6324815;22;20094;-89
2021/03/03 07:12:13;;;;;;;40.45;20.45;;;;;;;;;;6325353;22;20018;-89
2021/03/03 07:14:41;;;;;;;35.25;20.08;;;;;;;;;;6325540;22;20332;-89
2021/03/03 07:17:10;;;;;;;38.03;19.88;;;;;;;;;;6325622;22;20018;-89
2021/03/03 07:19:47;;;;;;;39.50;21.08;;;;;;;;;;6351937;22;20015;-88
2021/03/03 07:22:22;;;;;;;39.75;20.85;;;;;;;;;;6325464;22;20012;-89
2021/03/03 07:24:53;;;;;;;45.40;23.05;;;;;;;;;;6299979;22;20037;-90
2021/03/03 07:27:21;;;;;;;42.00;22.38;;;;;;;;;;6325089;22;20011;-87
2021/03/03 07:29:49;;;;;;;42.15;23.80;;;;;;;;;;6324958;22;20015;-88
2021/03/03 07:32:17;;;;;;;44.97;23.35;;;;;;;;;;6274155;22;20378;-88
2021/03/03 07:34:48;;;;;;;43.65;23.55;;;;;;;;;;6324721;22;20011;-88
2021/03/03 07:37:20;;;;;;;49.58;24.40;;;;;;;;;;6325070;22;20007;-87
2021/03/03 07:39:48;;;;;;;43.20;23.40;;;;;;;;;;6324036;22;20008;-87
2021/03/03 07:42:19;;;;;;;45.50;23.35;;;;;;;;;;6298947;22;20022;-89
2021/03/03 07:44:47;;;;;;;52.15;24.90;;;;;;;;;;6324479;22;20082;-87
2021/03/03 07:47:16;;;;;;;39.88;23.80;;;;;;;;;;6299677;22;20046;-87
2021/03/03 07:49:45;;;;;;;42.83;23.20;;;;;;;;;;6323758;22;20015;-89
2021/03/03 07:52:13;;;;;;;41.83;23.40;;;;;;;;;;6325083;22;20035;-89
2021/03/03 07:54:41;;;;;;;41.63;23.75;;;;;;;;;;6299325;22;20440;-89
2021/03/03 07:57:10;;;;;;;45.22;25.38;;;;;;;;;;6324639;22;20094;-89
2021/03/03 07:59:41;;;;;;;48.28;25.20;;;;;;;;;;6324394;22;20021;-88
2021/03/03 08:02:08;;;;;;;49.05;25.52;;;;;;;;;;6324887;22;20331;-89
2021/03/03 08:04:40;;;;;;;42.25;23.80;;;;;;;;;;6298831;22;20078;-89
2021/03/03 08:07:14;;;;;;;44.22;25.45;;;;;;;;;;6299219;22;20065;-91
2021/03/03 08:10:01;;;;;;;43.40;25.42;;;;;;;;;;6299185;22;20015;-92
2021/03/03 08:12:29;;;;;;;46.08;24.38;;;;;;;;;;6349949;22;20079;-89
2021/03/03 08:14:56;;;;;;;50.45;26.23;;;;;;;;;;6297800;22;20007;-90
2021/03/03 08:17:26;;;;;;;47.03;24.45;;;;;;;;;;6296146;22;20007;-90
2021/03/03 08:19:58;;;;;;;48.95;25.75;;;;;;;;;;6323970;22;20020;-90
2021/03/03 08:22:44;;;;;;;51.90;28.70;;;;;;;;;;6324635;22;20512;-90
2021/03/03 08:25:12;;;;;;;46.50;26.20;;;;;;;;;;6324771;22;20301;-94
2021/03/03 08:27:39;;;;;;;47.72;26.90;;;;;;;;;;6324504;22;20336;-92
2021/03/03 08:30:11;;;;;;;48.50;26.60;;;;;;;;;;6298737;22;20015;-92
2021/03/03 08:32:38;;;;;;;48.97;27.45;;;;;;;;;;6298582;22;20007;-92
2021/03/03 08:35:06;;;;;;;45.30;26.05;;;;;;;;;;6324757;22;20462;-91
2021/03/03 08:37:35;;;;;;;44.60;26.23;;;;;;;;;;6298550;22;20007;-91
2021/03/03 08:40:04;;;;;;;47.40;25.67;;;;;;;;;;6273681;22;20431;-91
2021/03/03 08:42:35;;;;;;;47.80;26.67;;;;;;;;;;6321261;22;20011;-90
2021/03/03 08:45:03;;;;;;;45.90;26.45;;;;;;;;;;6324370;22;20011;-90
2021/03/03 08:47:45;;;;;;;45.65;26.45;;;;;;;;;;6324293;22;20011;-91
2021/03/03 08:50:32;;;;;;;45.67;25.52;;;;;;;;;;6324838;22;20011;-92
2021/03/03 08:53:18;;;;;;;44.85;26.35;;;;;;;;;;6324876;22;20016;-91
2021/03/03 08:55:45;;;;;;;45.80;26.73;;;;;;;;;;6350058;22;20007;-91
2021/03/03 08:58:36;;;;;;;49.85;26.27;;;;;;;;;;6324401;22;20241;-91
2021/03/03 09:01:04;;;;;;;43.72;25.45;;;;;;;;;;6304859;22;20094;-92
2021/03/03 09:03:31;;;;;;;46.00;25.33;;;;;;;;;;6298722;22;20380;-92
2021/03/03 09:05:58;;;;;;;49.17;27.25;;;;;;;;;;6324112;22;20424;-92
2021/03/03 09:08:26;;;;;;;52.95;27.40;;;;;;;;;;6299013;22;20011;-91
2021/03/03 09:10:53;;;;;;;44.95;26.60;;;;;;;;;;6272403;22;20011;-92
2021/03/03 09:13:27;;;;;;;48.53;27.17;;;;;;;;;;6325828;22;20011;-93
2021/03/03 09:16:08;;;;;;;44.92;25.95;;;;;;;;;;6323366;22;20007;-90
2021/03/03 09:18:37;;;;;;;50.50;27.85;;;;;;;;;;6323418;22;20019;-88
2021/03/03 09:21:05;;;;;;;41.83;25.63;;;;;;;;;;6323275;22;20463;-90
2021/03/03 09:23:33;;;;;;;44.75;26.90;;;;;;;;;;6298158;22;20015;-91
2021/03/03 09:26:00;;;;;;;49.83;28.30;;;;;;;;;;6296058;22;20011;-90
2021/03/03 09:28:40;;;;;;;48.97;27.90;;;;;;;;;;6323906;22;20309;-90
2021/03/03 09:31:08;;;;;;;50.33;27.63;;;;;;;;;;6350785;22;20015;-90
2021/03/03 09:33:35;;;;;;;57.35;29.30;;;;;;;;;;6323376;22;20022;-89
2021/03/03 09:36:11;;;;;;;46.42;28.48;;;;;;;;;;6298297;22;20427;-88
2021/03/03 09:38:38;;;;;;;50.83;28.08;;;;;;;;;;6297588;22;20019;-90
2021/03/03 09:41:09;;;;;;;54.25;28.70;;;;;;;;;;6299204;22;20082;-89
2021/03/03 09:43:38;;;;;;;51.45;28.05;;;;;;;;;;6295718;22;20366;-91
2021/03/03 09:46:05;;;;;;;49.90;29.00;;;;;;;;;;6298108;22;20018;-88
2021/03/03 09:48:32;;;;;;;48.15;29.08;;;;;;;;;;6297397;22;20022;-90
2021/03/03 09:51:00;;;;;;;50.42;29.13;;;;;;;;;;6298309;22;20066;-91
2021/03/03 09:53:27;;;;;;;49.88;28.45;;;;;;;;;;6298720;22;20018;-91
2021/03/03 09:55:54;;;;;;;52.47;29.30;;;;;;;;;;6323919;22;20007;-90
2021/03/03 09:58:22;;;;;;;46.97;28.70;;;;;;;;;;6298407;22;20014;-92
2021/03/03 10:00:49;;;;;;;46.03;27.95;;;;;;;;;;6272713;22;20310;-91
2021/03/03 10:03:17;;;;;;;47.58;28.40;;;;;;;;;;6298487;22;20015;-91
2021/03/03 10:05:45;;;;;;;47.20;28.88;;;;;;;;;;6298084;22;20404;-91
2021/03/03 10:08:13;;;;;;;48.55;30.00;;;;;;;;;;6298606;22;20335;-91
2021/03/03 10:10:42;;;;;;;49.80;30.45;;;;;;;;;;6323316;22;20313;-90
2021/03/03 10:13:22;;;;;;;49.45;31.17;;;;;;;;;;6324065;22;20033;-89
2021/03/03 10:15:49;;;;;;;48.38;29.13;;;;;;;;;;6352225;22;20086;-90
2021/03/03 10:18:17;;;;;;;47.78;29.20;;;;;;;;;;6325256;22;20074;-89
2021/03/03 10:20:51;;;;;;;49.60;30.73;;;;;;;;;;6325278;22;20091;-89
2021/03/03 10:23:21;;;;;;;46.00;29.75;;;;;;;;;;6352473;22;20011;-89
2021/03/03 10:25:49;;;;;;;45.53;30.42;;;;;;;;;;6325680;22;20011;-89
2021/03/03 10:28:18;;;;;;;53.22;30.20;;;;;;;;;;6300235;22;20436;-88
2021/03/03 10:30:48;;;;;;;50.50;30.67;;;;;;;;;;6324911;22;20374;-88
2021/03/03 10:33:29;;;;;;;46.30;31.00;;;;;;;;;;6298880;22;20428;-90
2021/03/03 10:35:57;;;;;;;51.70;31.48;;;;;;;;;;6324973;22;20713;-89
2021/03/03 10:38:25;;;;;;;43.85;29.77;;;;;;;;;;6299765;22;20011;-89
2021/03/03 10:41:01;;;;;;;45.13;29.40;;;;;;;;;;6299536;22;20007;-93
2021/03/03 10:43:49;;;;;;;49.83;29.75;;;;;;;;;;6299420;22;20007;-93
2021/03/03 10:46:20;;;;;;;47.45;30.88;;;;;;;;;;6298840;22;20007;-90
2021/03/03 10:48:50;;;;;;;46.05;29.48;;;;;;;;;;6298673;22;20015;-91
2021/03/03 10:55:39;;;;;;;50.20;31.25;;;;;;;;;;6256905;23;20024;-91
2021/03/03 10:58:18;;;;;;;48.67;30.77;;;;;;;;;;6149627;23;20100;-91
2021/03/03 11:01:06;;;;;;;47.28;31.00;;;;;;;;;;6177714;23;20044;-90
2021/03/03 11:03:57;;;;;;;51.75;30.40;;;;;;;;;;6246717;22;20011;-91
2021/03/03 11:06:28;;;;;;;49.92;29.58;;;;;;;;;;6299915;22;20339;-89
2021/03/03 11:08:56;;;;;;;45.42;30.05;;;;;;;;;;6299586;22;20443;-89
2021/03/03 11:11:34;;;;;;;42.58;28.67;;;;;;;;;;6298774;22;20012;-90
2021/03/03 11:14:29;;;;;;;47.20;29.85;;;;;;;;;;6275509;22;20015;-95
2021/03/03 11:17:25;;;;;;;47.42;29.58;;;;;;;;;;6326725;22;20042;-92
2021/03/03 11:20:04;;;;;;;45.83;30.45;;;;;;;;;;6296961;22;20023;-92
2021/03/03 11:26:20;;;;;;;43.40;29.58;;;;;;;;;;6169172;23;20347;-93
2021/03/03 11:29:16;;;;;;;48.22;30.48;;;;;;;;;;6208912;22;20037;-93
2021/03/03 11:31:51;;;;;;;47.08;31.08;;;;;;;;;;6300538;22;20007;-93
2021/03/03 11:34:18;;;;;;;47.10;32.22;;;;;;;;;;6274072;22;20035;-91
2021/03/03 11:36:45;;;;;;;51.17;32.72;;;;;;;;;;6299694;22;20332;-92
2021/03/03 11:39:13;;;;;;;51.35;33.80;;;;;;;;;;6299441;22;20366;-90
2021/03/03 11:41:40;;;;;;;51.53;33.75;;;;;;;;;;6299752;22;20470;-91
2021/03/03 11:44:07;;;;;;;55.70;34.20;;;;;;;;;;6297967;22;20030;-91
2021/03/03 11:46:35;;;;;;;48.38;32.30;;;;;;;;;;6323890;22;20015;-93
2021/03/03 11:49:02;;;;;;;51.58;33.72;;;;;;;;;;6323888;22;20061;-92
2021/03/03 11:51:29;;;;;;;52.55;33.60;;;;;;;;;;6299250;22;20012;-91
2021/03/03 11:53:57;;;;;;;50.80;33.00;;;;;;;;;;6324555;22;20007;-90
2021/03/03 11:56:24;;;;;;;51.58;34.80;;;;;;;;;;6299503;22;20109;-89
2021/03/03 11:58:54;;;;;;;55.15;33.90;;;;;;;;;;6324715;22;20678;-93
2021/03/03 12:01:21;;;;;;;49.78;33.35;;;;;;;;;;6274535;22;20094;-91
2021/03/03 12:03:49;;;;;;;48.15;33.53;;;;;;;;;;6299721;22;20015;-90
2021/03/03 12:06:17;;;;;;;45.92;31.15;;;;;;;;;;6325391;22;20003;-91
2021/03/03 12:08:47;;;;;;;41.60;28.08;;;;;;;;;;6299383;22;20478;-89
2021/03/03 12:11:14;;;;;;;43.53;28.42;;;;;;;;;;6324814;22;20452;-93
2021/03/03 12:13:41;;;;;;;40.78;27.67;;;;;;;;;;6276189;22;20026;-95
2021/03/03 12:16:09;;;;;;;38.15;26.17;;;;;;;;;;6350668;22;20007;-90
2021/03/03 12:18:37;;;;;;;41.70;27.10;;;;;;;;;;6299107;22;20011;-92
2021/03/03 12:21:05;;;;;;;40.95;26.30;;;;;;;;;;6298412;22;21045;-92
2021/03/03 12:23:37;;;;;;;39.13;26.77;;;;;;;;;;6298877;22;20427;-92
2021/03/03 12:26:05;;;;;;;41.45;25.98;;;;;;;;;;6324134;22;20510;-91
2021/03/03 12:28:33;;;;;;;40.75;26.75;;;;;;;;;;6299345;22;20042;-90
2021/03/03 12:31:00;;;;;;;39.08;27.20;;;;;;;;;;6324166;22;20324;-91
2021/03/03 12:33:27;;;;;;;37.67;26.42;;;;;;;;;;6299229;22;20011;-91
2021/03/03 12:35:54;;;;;;;37.22;24.67;;;;;;;;;;6298235;22;20027;-91
2021/03/03 12:38:22;;;;;;;42.20;27.98;;;;;;;;;;6298912;22;20014;-91
2021/03/03 12:40:49;;;;;;;40.58;27.88;;;;;;;;;;6298910;22;20011;-90
2021/03/03 12:43:16;;;;;;;41.95;27.95;;;;;;;;;;6322098;22;20007;-92
2021/03/03 12:48:29;;;;;;;51.55;31.90;;;;;;;;;;6362251;22;20309;-91
2021/03/03 12:50:57;;;;;;;48.47;32.30;;;;;;;;;;6297997;22;20014;-90
2021/03/03 12:53:24;;;;;;;45.92;31.80;;;;;;;;;;6299206;22;20007;-90
2021/03/03 12:55:51;;;;;;;44.63;30.02;;;;;;;;;;6298642;22;20491;-88
2021/03/03 12:58:18;;;;;;;44.67;30.13;;;;;;;;;;6298953;22;20011;-91
2021/03/03 13:00:45;;;;;;;42.95;29.05;;;;;;;;;;6298153;22;20015;-92
2021/03/03 13:03:13;;;;;;;39.88;28.73;;;;;;;;;;6324368;22;20014;-91
2021/03/03 13:05:42;;;;;;;43.83;29.40;;;;;;;;;;6324467;22;20023;-90
2021/03/03 13:08:09;;;;;;;43.72;30.27;;;;;;;;;;6298371;22;20011;-93
2021/03/03 13:10:36;;;;;;;42.08;29.25;;;;;;;;;;6324660;22;20095;-91
2021/03/03 13:13:04;;;;;;;43.95;30.77;;;;;;;;;;6320354;22;20398;-92
2021/03/03 13:15:31;;;;;;;44.20;31.75;;;;;;;;;;6298937;22;20011;-94
2021/03/03 13:17:58;;;;;;;44.08;30.35;;;;;;;;;;6323222;22;20057;-92
2021/03/03 13:20:25;;;;;;;43.90;31.30;;;;;;;;;;6324278;22;20034;-92
2021/03/03 13:22:53;;;;;;;42.63;30.35;;;;;;;;;;6297809;22;20035;-93
2021/03/03 13:25:20;;;;;;;43.53;29.92;;;;;;;;;;6298524;22;20021;-92
2021/03/03 13:27:47;;;;;;;45.85;30.65;;;;;;;;;;6298192;22;20027;-92
2021/03/03 13:30:15;;;;;;;45.65;30.48;;;;;;;;;;6272454;22;20060;-92
2021/03/03 13:32:42;;;;;;;43.15;30.63;;;;;;;;;;6324207;22;20030;-91
2021/03/03 13:35:10;;;;;;;45.72;31.80;;;;;;;;;;6298563;22;20015;-92
2021/03/03 13:37:38;;;;;;;46.65;31.30;;;;;;;;;;6323919;22;20011;-91
2021/03/03 13:40:07;;;;;;;46.10;32.33;;;;;;;;;;6322972;22;20082;-92
2021/03/03 13:42:35;;;;;;;54.85;33.35;;;;;;;;;;6321640;22;20069;-92
2021/03/03 13:45:04;;;;;;;51.42;33.75;;;;;;;;;;6296764;22;20011;-93
2021/03/03 13:47:31;;;;;;;53.55;34.83;;;;;;;;;;6323407;22;20031;-92
2021/03/03 13:49:59;;;;;;;50.65;34.67;;;;;;;;;;6300170;22;20065;-92
2021/03/03 13:52:27;;;;;;;55.97;34.03;;;;;;;;;;6299814;22;20015;-92
2021/03/03 13:54:54;;;;;;;51.58;34.17;;;;;;;;;;6300810;22;20003;-92
2021/03/03 13:57:21;;;;;;;50.80;33.60;;;;;;;;;;6300898;22;20049;-93
2021/03/03 13:59:48;;;;;;;53.95;34.00;;;;;;;;;;6300408;22;20014;-92
2021/03/03 14:02:16;;;;;;;55.53;37.22;;;;;;;;;;6300036;22;20022;-92
2021/03/03 14:04:43;;;;;;;53.38;34.20;;;;;;;;;;6326417;22;20008;-91
2021/03/03 14:07:12;;;;;;;58.55;33.92;;;;;;;;;;6300122;22;20038;-92
2021/03/03 14:09:41;;;;;;;62.10;35.92;;;;;;;;;;6301581;22;20011;-91
2021/03/03 14:12:11;;;;;;;54.20;35.38;;;;;;;;;;6297589;22;20011;-89
2021/03/03 14:14:39;;;;;;;56.53;32.47;;;;;;;;;;6300635;22;20450;-91
2021/03/03 14:17:06;;;;;;;57.40;33.55;;;;;;;;;;6352545;22;20011;-93
2021/03/03 14:19:34;;;;;;;55.28;33.65;;;;;;;;;;6275603;22;20076;-91
2021/03/03 14:22:01;;;;;;;56.10;34.72;;;;;;;;;;6297974;22;20011;-93
2021/03/03 14:24:29;;;;;;;56.83;32.38;;;;;;;;;;6275144;22;20023;-91
2021/03/03 14:26:56;;;;;;;58.95;33.60;;;;;;;;;;6326204;22;20014;-94
2021/03/03 14:29:23;;;;;;;54.88;32.33;;;;;;;;;;6325866;22;20018;-94
2021/03/03 14:31:50;;;;;;;54.20;31.50;;;;;;;;;;6300384;22;20072;-92
2021/03/03 14:34:18;;;;;;;52.03;31.23;;;;;;;;;;6325158;22;20061;-93
2021/03/03 14:36:45;;;;;;;51.42;32.65;;;;;;;;;;6325734;22;20015;-92
2021/03/03 14:39:15;;;;;;;52.45;30.63;;;;;;;;;;6325632;22;20018;-95